sensor_id;sensor_type;location;lat;lon;timestamp;temperature;humidity
4856;DHT22;2442;48.676;7.986;2024-01-07T16:24:58;2.60;99.90
4856;DHT22;2442;48.676;7.986;2024-01-07T16:27:24;2.50;99.90
4856;DHT22;2442;48.676;7.986;2024-01-07T16:29:51;2.40;99.90
4856;DHT22;2442;48.676;7.986;2024-01-07T16:32:18;2.30;99.90
4856;DHT22;2442;48.676;7.986;2024-01-07T16:34:45;2.30;99.90
4856;DHT22;2442;48.676;7.986;2024-01-07T16:37:12;2.30;99.90
4856;DHT22;2442;48.676;7.986;2024-01-07T16:39:39;2.30;99.90
4856;DHT22;2442;48.676;7.986;2024-01-07T16:42:07;2.20;99.90
4856;DHT22;2442;48.676;7.986;2024-01-07T16:44:34;2.20;99.90
4856;DHT22;2442;48.676;7.986;2024-01-07T16:47:01;2.20;99.90
4856;DHT22;2442;48.676;7.986;2024-01-07T16:49:27;2.30;99.90
4856;DHT22;2442;48.676;7.986;2024-01-07T16:51:54;2.30;99.90
4856;DHT22;2442;48.676;7.986;2024-01-07T16:54:21;2.30;99.90
4856;DHT22;2442;48.676;7.986;2024-01-07T16:56:47;2.30;99.90
4856;DHT22;2442;48.676;7.986;2024-01-07T16:59:15;2.20;99.90
4856;DHT22;2442;48.676;7.986;2024-01-07T17:01:42;2.20;99.90
4856;DHT22;2442;48.676;7.986;2024-01-07T17:04:09;2.20;99.90
4856;DHT22;2442;48.676;7.986;2024-01-07T17:06:36;2.20;99.90
4856;DHT22;2442;48.676;7.986;2024-01-07T17:09:02;2.20;99.90
4856;DHT22;2442;48.676;7.986;2024-01-07T17:11:29;2.10;99.90
4856;DHT22;2442;48.676;7.986;2024-01-07T17:13:56;2.10;99.90
4856;DHT22;2442;48.676;7.986;2024-01-07T17:16:24;2.10;99.90
4856;DHT22;2442;48.676;7.986;2024-01-07T17:18:53;2.10;99.90
4856;DHT22;2442;48.676;7.986;2024-01-07T17:21:20;2.00;99.90
4856;DHT22;2442;48.676;7.986;2024-01-07T17:23:47;2.00;99.90
4856;DHT22;2442;48.676;7.986;2024-01-07T17:26:17;2.00;99.90
4856;DHT22;2442;48.676;7.986;2024-01-07T17:28:44;1.90;99.90
4856;DHT22;2442;48.676;7.986;2024-01-07T17:31:10;1.90;99.90
4856;DHT22;2442;48.676;7.986;2024-01-07T17:33:39;1.80;99.90
4856;DHT22;2442;48.676;7.986;2024-01-07T17:36:06;1.80;99.90
4856;DHT22;2442;48.676;7.986;2024-01-07T17:38:32;1.70;99.90
4856;DHT22;2442;48.676;7.986;2024-01-07T17:40:59;1.70;99.90
4856;DHT22;2442;48.676;7.986;2024-01-07T17:43:26;1.70;99.90
4856;DHT22;2442;48.676;7.986;2024-01-07T17:45:52;1.50;99.90
4856;DHT22;2442;48.676;7.986;2024-01-07T17:48:20;1.30;99.90
4856;DHT22;2442;48.676;7.986;2024-01-07T17:50:48;1.40;99.90
4856;DHT22;2442;48.676;7.986;2024-01-07T17:53:14;1.30;99.90
4856;DHT22;2442;48.676;7.986;2024-01-07T17:55:41;0.90;99.90
4856;DHT22;2442;48.676;7.986;2024-01-07T17:58:08;1.00;99.90
4856;DHT22;2442;48.676;7.986;2024-01-07T18:00:34;1.00;99.90
4856;DHT22;2442;48.676;7.986;2024-01-07T18:03:01;0.90;99.90
4856;DHT22;2442;48.676;7.986;2024-01-07T18:05:32;0.90;99.90
4856;DHT22;2442;48.676;7.986;2024-01-07T18:08:00;0.80;99.90
4856;DHT22;2442;48.676;7.986;2024-01-07T18:10:27;0.70;99.90
4856;DHT22;2442;48.676;7.986;2024-01-07T18:12:54;0.70;99.90
4856;DHT22;2442;48.676;7.986;2024-01-07T18:15:20;0.70;99.90
4856;DHT22;2442;48.676;7.986;2024-01-07T18:17:47;0.70;99.90
4856;DHT22;2442;48.676;7.986;2024-01-07T18:20:14;0.60;99.90
4856;DHT22;2442;48.676;7.986;2024-01-07T18:22:41;0.50;99.90
4856;DHT22;2442;48.676;7.986;2024-01-07T18:25:09;0.50;99.90
4856;DHT22;2442;48.676;7.986;2024-01-07T18:27:36;0.50;99.90
4856;DHT22;2442;48.676;7.986;2024-01-07T18:30:04;0.50;99.90
4856;DHT22;2442;48.676;7.986;2024-01-07T18:32:31;0.40;99.90
4856;DHT22;2442;48.676;7.986;2024-01-07T18:34:59;0.50;99.90
4856;DHT22;2442;48.676;7.986;2024-01-07T18:37:26;0.40;99.90
4856;DHT22;2442;48.676;7.986;2024-01-07T18:39:53;0.30;99.90
4856;DHT22;2442;48.676;7.986;2024-01-07T19:43:46;0.10;99.90
4856;DHT22;2442;48.676;7.986;2024-01-07T19:46:21;-0.30;99.90
4856;DHT22;2442;48.676;7.986;2024-01-07T19:48:48;-0.30;99.90
4856;DHT22;2442;48.676;7.986;2024-01-07T19:51:14;-0.30;99.90
4856;DHT22;2442;48.676;7.986;2024-01-07T19:53:41;-0.30;99.90
4856;DHT22;2442;48.676;7.986;2024-01-07T19:56:08;-0.30;99.90
4856;DHT22;2442;48.676;7.986;2024-01-07T19:58:35;-0.40;99.90
4856;DHT22;2442;48.676;7.986;2024-01-07T20:01:03;-0.30;99.90
4856;DHT22;2442;48.676;7.986;2024-01-07T20:03:29;-0.40;99.90
4856;DHT22;2442;48.676;7.986;2024-01-07T20:05:56;-0.30;99.90
4856;DHT22;2442;48.676;7.986;2024-01-07T20:08:23;-0.20;99.90
4856;DHT22;2442;48.676;7.986;2024-01-07T20:10:50;-0.30;99.90
4856;DHT22;2442;48.676;7.986;2024-01-07T20:13:18;-0.40;99.90
4856;DHT22;2442;48.676;7.986;2024-01-07T20:15:44;-0.30;99.90
4856;DHT22;2442;48.676;7.986;2024-01-07T20:18:12;-0.50;99.90
4856;DHT22;2442;48.676;7.986;2024-01-07T20:20:39;-0.30;99.90
4856;DHT22;2442;48.676;7.986;2024-01-07T20:23:06;-0.40;99.90
4856;DHT22;2442;48.676;7.986;2024-01-07T20:25:32;-0.30;99.90
4856;DHT22;2442;48.676;7.986;2024-01-07T20:27:59;-0.40;99.90
4856;DHT22;2442;48.676;7.986;2024-01-07T20:30:26;-0.30;99.90
4856;DHT22;2442;48.676;7.986;2024-01-07T20:32:53;-0.30;99.90
4856;DHT22;2442;48.676;7.986;2024-01-07T20:35:21;-0.60;99.90
4856;DHT22;2442;48.676;7.986;2024-01-07T20:37:48;-0.40;99.90
4856;DHT22;2442;48.676;7.986;2024-01-07T20:40:14;-0.60;99.90
4856;DHT22;2442;48.676;7.986;2024-01-07T20:42:41;-0.60;99.90
4856;DHT22;2442;48.676;7.986;2024-01-07T20:45:09;-0.50;99.90
4856;DHT22;2442;48.676;7.986;2024-01-07T20:47:36;-0.40;99.90
4856;DHT22;2442;48.676;7.986;2024-01-07T20:50:03;-0.60;99.90
4856;DHT22;2442;48.676;7.986;2024-01-07T20:52:31;-0.50;99.90
4856;DHT22;2442;48.676;7.986;2024-01-07T20:54:57;-0.60;99.90
4856;DHT22;2442;48.676;7.986;2024-01-07T20:57:24;-0.80;99.90
4856;DHT22;2442;48.676;7.986;2024-01-07T20:59:51;-0.70;99.90
4856;DHT22;2442;48.676;7.986;2024-01-07T21:02:17;-0.70;99.90
4856;DHT22;2442;48.676;7.986;2024-01-07T21:04:44;-0.70;99.90
4856;DHT22;2442;48.676;7.986;2024-01-07T21:09:40;-0.70;99.90
4856;DHT22;2442;48.676;7.986;2024-01-07T21:12:07;-0.70;99.90
4856;DHT22;2442;48.676;7.986;2024-01-07T21:14:33;-0.70;99.90
4856;DHT22;2442;48.676;7.986;2024-01-07T21:17:00;-0.80;99.90
4856;DHT22;2442;48.676;7.986;2024-01-07T21:19:28;-0.70;99.90
4856;DHT22;2442;48.676;7.986;2024-01-07T21:21:54;-0.80;99.90
4856;DHT22;2442;48.676;7.986;2024-01-07T21:24:21;-0.80;99.90
4856;DHT22;2442;48.676;7.986;2024-01-07T21:26:49;-0.80;99.90
4856;DHT22;2442;48.676;7.986;2024-01-07T21:29:16;-0.70;99.90
4856;DHT22;2442;48.676;7.986;2024-01-07T21:31:42;-0.80;99.90
4856;DHT22;2442;48.676;7.986;2024-01-07T21:34:09;-0.80;99.90
4856;DHT22;2442;48.676;7.986;2024-01-07T21:36:39;-0.70;99.90
4856;DHT22;2442;48.676;7.986;2024-01-07T21:39:05;-0.70;99.90
4856;DHT22;2442;48.676;7.986;2024-01-07T21:41:33;-0.80;99.90
4856;DHT22;2442;48.676;7.986;2024-01-07T21:44:01;-0.70;99.90
4856;DHT22;2442;48.676;7.986;2024-01-07T21:46:28;-0.70;99.90
4856;DHT22;2442;48.676;7.986;2024-01-07T21:48:55;-0.70;99.90
4856;DHT22;2442;48.676;7.986;2024-01-07T21:51:21;-0.70;99.90
4856;DHT22;2442;48.676;7.986;2024-01-07T21:53:52;-0.80;99.90
4856;DHT22;2442;48.676;7.986;2024-01-07T21:56:19;-0.70;99.90
4856;DHT22;2442;48.676;7.986;2024-01-07T21:58:45;-0.70;99.90
4856;DHT22;2442;48.676;7.986;2024-01-07T22:01:13;-0.70;99.90
4856;DHT22;2442;48.676;7.986;2024-01-07T22:03:40;-0.70;99.90
4856;DHT22;2442;48.676;7.986;2024-01-07T22:06:06;-0.70;99.90
4856;DHT22;2442;48.676;7.986;2024-01-07T22:08:33;-0.60;99.90
4856;DHT22;2442;48.676;7.986;2024-01-07T22:11:00;-0.60;99.90
4856;DHT22;2442;48.676;7.986;2024-01-07T22:13:27;-0.70;99.90
4856;DHT22;2442;48.676;7.986;2024-01-07T22:15:54;-0.60;99.90
4856;DHT22;2442;48.676;7.986;2024-01-07T22:18:22;-0.60;99.90
4856;DHT22;2442;48.676;7.986;2024-01-07T22:20:49;-0.60;99.90
4856;DHT22;2442;48.676;7.986;2024-01-07T22:23:15;-0.60;99.90
4856;DHT22;2442;48.676;7.986;2024-01-07T22:25:43;-0.60;99.90
4856;DHT22;2442;48.676;7.986;2024-01-07T22:28:09;-0.60;99.90
4856;DHT22;2442;48.676;7.986;2024-01-07T22:30:36;-0.60;99.90
4856;DHT22;2442;48.676;7.986;2024-01-07T22:33:03;-0.60;99.90
4856;DHT22;2442;48.676;7.986;2024-01-07T22:35:32;-0.60;99.90
4856;DHT22;2442;48.676;7.986;2024-01-07T22:37:59;-0.60;99.90
4856;DHT22;2442;48.676;7.986;2024-01-07T22:40:26;-0.50;99.90
4856;DHT22;2442;48.676;7.986;2024-01-07T22:42:54;-0.60;99.90
4856;DHT22;2442;48.676;7.986;2024-01-07T22:45:20;-0.60;99.90
4856;DHT22;2442;48.676;7.986;2024-01-07T22:47:47;-0.60;99.90
4856;DHT22;2442;48.676;7.986;2024-01-07T22:50:14;-0.60;99.90
4856;DHT22;2442;48.676;7.986;2024-01-07T22:52:42;-0.60;99.90
4856;DHT22;2442;48.676;7.986;2024-01-07T22:55:11;-0.70;99.90
4856;DHT22;2442;48.676;7.986;2024-01-07T22:57:37;-0.70;99.90
4856;DHT22;2442;48.676;7.986;2024-01-07T23:00:04;-0.70;99.90
4856;DHT22;2442;48.676;7.986;2024-01-07T23:02:30;-0.70;99.90
4856;DHT22;2442;48.676;7.986;2024-01-07T23:04:57;-0.70;99.90
4856;DHT22;2442;48.676;7.986;2024-01-07T23:07:24;-0.70;99.90
4856;DHT22;2442;48.676;7.986;2024-01-07T23:09:52;-0.70;99.90
4856;DHT22;2442;48.676;7.986;2024-01-07T23:12:18;-0.70;99.90
4856;DHT22;2442;48.676;7.986;2024-01-07T23:14:45;-0.70;99.90
4856;DHT22;2442;48.676;7.986;2024-01-07T23:17:12;-0.70;99.90
4856;DHT22;2442;48.676;7.986;2024-01-07T23:19:38;-0.70;99.90
4856;DHT22;2442;48.676;7.986;2024-01-07T23:22:05;-0.70;99.90
4856;DHT22;2442;48.676;7.986;2024-01-07T23:24:32;-0.70;99.90
4856;DHT22;2442;48.676;7.986;2024-01-07T23:27:00;-0.70;99.90
4856;DHT22;2442;48.676;7.986;2024-01-07T23:29:27;-0.70;99.90
4856;DHT22;2442;48.676;7.986;2024-01-07T23:31:53;-0.70;99.90
4856;DHT22;2442;48.676;7.986;2024-01-07T23:34:20;-0.70;99.90
4856;DHT22;2442;48.676;7.986;2024-01-07T23:36:46;-0.70;99.90
4856;DHT22;2442;48.676;7.986;2024-01-07T23:39:13;-0.70;99.90
4856;DHT22;2442;48.676;7.986;2024-01-07T23:41:40;-0.70;99.90
4856;DHT22;2442;48.676;7.986;2024-01-07T23:44:08;-0.70;99.90
4856;DHT22;2442;48.676;7.986;2024-01-07T23:46:34;-0.70;99.90
4856;DHT22;2442;48.676;7.986;2024-01-07T23:49:01;-0.70;99.90
4856;DHT22;2442;48.676;7.986;2024-01-07T23:51:28;-0.70;99.90
4856;DHT22;2442;48.676;7.986;2024-01-07T23:53:54;-0.70;99.90
4856;DHT22;2442;48.676;7.986;2024-01-07T23:56:21;-0.70;99.90
4856;DHT22;2442;48.676;7.986;2024-01-07T23:58:48;-0.70;99.90
